sensor_id;sensor_type;location;lat;lon;timestamp;P1;durP1;ratioP1;P2;durP2;ratioP2
65658;SDS011;60181;53.258;6.932;2023-04-15T00:02:24;13.30;;;5.40;;
65658;SDS011;60181;53.258;6.932;2023-04-15T00:06:28;13.30;;;5.40;;
65658;SDS011;60181;53.258;6.932;2023-04-15T00:10:32;13.60;;;5.70;;
65658;SDS011;60181;53.258;6.932;2023-04-15T00:14:36;13.60;;;5.70;;
65658;SDS011;60181;53.258;6.932;2023-04-15T00:18:40;15.60;;;6.00;;
65658;SDS011;60181;53.258;6.932;2023-04-15T00:22:44;15.60;;;6.00;;
65658;SDS011;60181;53.258;6.932;2023-04-15T00:26:49;15.60;;;6.00;;
65658;SDS011;60181;53.258;6.932;2023-04-15T00:30:52;18.50;;;6.40;;
65658;SDS011;60181;53.258;6.932;2023-04-15T00:34:56;18.50;;;6.40;;
65658;SDS011;60181;53.258;6.932;2023-04-15T00:39:00;14.90;;;6.20;;
65658;SDS011;60181;53.258;6.932;2023-04-15T00:43:04;14.90;;;6.20;;
65658;SDS011;60181;53.258;6.932;2023-04-15T00:47:08;12.80;;;6.50;;
65658;SDS011;60181;53.258;6.932;2023-04-15T00:51:12;12.80;;;6.50;;
65658;SDS011;60181;53.258;6.932;2023-04-15T00:55:16;12.80;;;6.50;;
65658;SDS011;60181;53.258;6.932;2023-04-15T00:59:20;14.70;;;6.60;;
65658;SDS011;60181;53.258;6.932;2023-04-15T01:03:24;14.70;;;6.60;;
65658;SDS011;60181;53.258;6.932;2023-04-15T01:07:28;16.60;;;6.80;;
65658;SDS011;60181;53.258;6.932;2023-04-15T01:11:32;16.60;;;6.80;;
65658;SDS011;60181;53.258;6.932;2023-04-15T01:15:36;16.60;;;6.80;;
65658;SDS011;60181;53.258;6.932;2023-04-15T01:19:40;11.20;;;6.60;;
65658;SDS011;60181;53.258;6.932;2023-04-15T01:23:45;11.20;;;6.60;;
65658;SDS011;60181;53.258;6.932;2023-04-15T01:27:48;11.50;;;6.50;;
65658;SDS011;60181;53.258;6.932;2023-04-15T01:31:54;11.50;;;6.50;;
65658;SDS011;60181;53.258;6.932;2023-04-15T01:35:56;11.50;;;6.50;;
65658;SDS011;60181;53.258;6.932;2023-04-15T01:40:00;15.00;;;6.60;;
65658;SDS011;60181;53.258;6.932;2023-04-15T01:44:04;15.00;;;6.60;;
65658;SDS011;60181;53.258;6.932;2023-04-15T01:48:08;15.50;;;6.80;;
65658;SDS011;60181;53.258;6.932;2023-04-15T01:52:12;15.50;;;6.80;;
65658;SDS011;60181;53.258;6.932;2023-04-15T01:56:16;15.50;;;6.80;;
65658;SDS011;60181;53.258;6.932;2023-04-15T02:00:20;15.70;;;7.30;;
65658;SDS011;60181;53.258;6.932;2023-04-15T02:04:24;15.70;;;7.30;;
65658;SDS011;60181;53.258;6.932;2023-04-15T02:08:28;14.20;;;7.20;;
65658;SDS011;60181;53.258;6.932;2023-04-15T02:12:32;14.20;;;7.20;;
65658;SDS011;60181;53.258;6.932;2023-04-15T02:16:42;14.20;;;7.20;;
65658;SDS011;60181;53.258;6.932;2023-04-15T02:20:40;14.00;;;6.90;;
65658;SDS011;60181;53.258;6.932;2023-04-15T02:24:45;14.00;;;6.90;;
65658;SDS011;60181;53.258;6.932;2023-04-15T02:28:48;12.30;;;6.60;;
65658;SDS011;60181;53.258;6.932;2023-04-15T02:32:52;12.30;;;6.60;;
65658;SDS011;60181;53.258;6.932;2023-04-15T02:36:56;12.30;;;6.60;;
65658;SDS011;60181;53.258;6.932;2023-04-15T02:41:00;13.30;;;7.20;;
65658;SDS011;60181;53.258;6.932;2023-04-15T02:45:05;13.30;;;7.20;;
65658;SDS011;60181;53.258;6.932;2023-04-15T02:49:08;16.00;;;7.60;;
65658;SDS011;60181;53.258;6.932;2023-04-15T02:53:12;16.00;;;7.60;;
65658;SDS011;60181;53.258;6.932;2023-04-15T02:57:16;18.70;;;8.30;;
65658;SDS011;60181;53.258;6.932;2023-04-15T03:01:20;18.70;;;8.30;;
65658;SDS011;60181;53.258;6.932;2023-04-15T03:05:24;18.70;;;8.30;;
65658;SDS011;60181;53.258;6.932;2023-04-15T03:09:28;19.50;;;9.10;;
65658;SDS011;60181;53.258;6.932;2023-04-15T03:13:32;19.50;;;9.10;;
65658;SDS011;60181;53.258;6.932;2023-04-15T03:17:36;18.20;;;9.00;;
65658;SDS011;60181;53.258;6.932;2023-04-15T03:21:40;18.20;;;9.00;;
65658;SDS011;60181;53.258;6.932;2023-04-15T03:25:44;18.20;;;9.00;;
65658;SDS011;60181;53.258;6.932;2023-04-15T03:29:48;19.50;;;8.80;;
65658;SDS011;60181;53.258;6.932;2023-04-15T03:33:52;19.50;;;8.80;;
65658;SDS011;60181;53.258;6.932;2023-04-15T03:37:56;17.70;;;8.00;;
65658;SDS011;60181;53.258;6.932;2023-04-15T03:42:00;17.70;;;8.00;;
65658;SDS011;60181;53.258;6.932;2023-04-15T03:46:04;17.70;;;8.00;;
65658;SDS011;60181;53.258;6.932;2023-04-15T03:50:08;23.10;;;7.80;;
65658;SDS011;60181;53.258;6.932;2023-04-15T03:54:12;23.10;;;7.80;;
65658;SDS011;60181;53.258;6.932;2023-04-15T03:58:16;14.60;;;6.70;;
65658;SDS011;60181;53.258;6.932;2023-04-15T04:02:20;14.60;;;6.70;;
65658;SDS011;60181;53.258;6.932;2023-04-15T04:06:24;14.60;;;6.70;;
65658;SDS011;60181;53.258;6.932;2023-04-15T04:10:28;12.30;;;5.50;;
65658;SDS011;60181;53.258;6.932;2023-04-15T04:14:32;12.30;;;5.50;;
65658;SDS011;60181;53.258;6.932;2023-04-15T04:18:36;10.00;;;4.30;;
65658;SDS011;60181;53.258;6.932;2023-04-15T04:22:40;10.00;;;4.30;;
65658;SDS011;60181;53.258;6.932;2023-04-15T04:26:44;10.00;;;4.30;;
65658;SDS011;60181;53.258;6.932;2023-04-15T04:30:48;11.30;;;4.50;;
65658;SDS011;60181;53.258;6.932;2023-04-15T04:34:52;11.30;;;4.50;;
65658;SDS011;60181;53.258;6.932;2023-04-15T04:38:56;7.30;;;3.80;;
65658;SDS011;60181;53.258;6.932;2023-04-15T04:43:00;7.30;;;3.80;;
65658;SDS011;60181;53.258;6.932;2023-04-15T04:47:04;7.50;;;2.80;;
65658;SDS011;60181;53.258;6.932;2023-04-15T04:51:08;7.50;;;2.80;;
65658;SDS011;60181;53.258;6.932;2023-04-15T04:55:12;7.50;;;2.80;;
65658;SDS011;60181;53.258;6.932;2023-04-15T04:59:16;5.20;;;2.80;;
65658;SDS011;60181;53.258;6.932;2023-04-15T05:03:20;5.20;;;2.80;;
65658;SDS011;60181;53.258;6.932;2023-04-15T05:07:24;4.30;;;2.50;;
65658;SDS011;60181;53.258;6.932;2023-04-15T05:11:28;4.30;;;2.50;;
65658;SDS011;60181;53.258;6.932;2023-04-15T05:15:32;4.30;;;2.50;;
65658;SDS011;60181;53.258;6.932;2023-04-15T05:19:36;4.20;;;2.40;;
65658;SDS011;60181;53.258;6.932;2023-04-15T05:23:40;4.20;;;2.40;;
65658;SDS011;60181;53.258;6.932;2023-04-15T05:27:44;4.10;;;2.40;;
65658;SDS011;60181;53.258;6.932;2023-04-15T05:31:48;4.10;;;2.40;;
65658;SDS011;60181;53.258;6.932;2023-04-15T05:35:52;4.10;;;2.40;;
65658;SDS011;60181;53.258;6.932;2023-04-15T05:39:56;5.40;;;2.50;;
65658;SDS011;60181;53.258;6.932;2023-04-15T05:44:00;5.40;;;2.50;;
65658;SDS011;60181;53.258;6.932;2023-04-15T05:48:04;6.50;;;2.40;;
65658;SDS011;60181;53.258;6.932;2023-04-15T05:52:08;6.50;;;2.40;;
65658;SDS011;60181;53.258;6.932;2023-04-15T05:56:12;6.50;;;2.40;;
65658;SDS011;60181;53.258;6.932;2023-04-15T06:00:16;3.70;;;2.10;;
65658;SDS011;60181;53.258;6.932;2023-04-15T06:04:20;3.70;;;2.10;;
65658;SDS011;60181;53.258;6.932;2023-04-15T06:08:24;4.70;;;2.40;;
65658;SDS011;60181;53.258;6.932;2023-04-15T06:12:28;4.70;;;2.40;;
65658;SDS011;60181;53.258;6.932;2023-04-15T06:16:32;4.70;;;2.40;;
65658;SDS011;60181;53.258;6.932;2023-04-15T06:20:36;4.90;;;2.40;;
65658;SDS011;60181;53.258;6.932;2023-04-15T06:24:40;4.90;;;2.40;;
65658;SDS011;60181;53.258;6.932;2023-04-15T06:28:44;3.10;;;2.00;;
65658;SDS011;60181;53.258;6.932;2023-04-15T06:32:48;3.10;;;2.00;;
65658;SDS011;60181;53.258;6.932;2023-04-15T06:36:52;3.10;;;2.00;;
65658;SDS011;60181;53.258;6.932;2023-04-15T06:40:56;6.20;;;2.10;;
65658;SDS011;60181;53.258;6.932;2023-04-15T06:45:00;6.20;;;2.10;;
65658;SDS011;60181;53.258;6.932;2023-04-15T06:49:04;8.10;;;2.20;;
65658;SDS011;60181;53.258;6.932;2023-04-15T06:53:08;8.10;;;2.20;;
65658;SDS011;60181;53.258;6.932;2023-04-15T06:57:12;8.50;;;2.10;;
65658;SDS011;60181;53.258;6.932;2023-04-15T07:01:16;8.50;;;2.10;;
65658;SDS011;60181;53.258;6.932;2023-04-15T07:05:20;8.50;;;2.10;;
65658;SDS011;60181;53.258;6.932;2023-04-15T07:09:24;2.70;;;1.40;;
65658;SDS011;60181;53.258;6.932;2023-04-15T07:13:29;2.70;;;1.40;;
65658;SDS011;60181;53.258;6.932;2023-04-15T07:17:32;3.90;;;1.80;;
65658;SDS011;60181;53.258;6.932;2023-04-15T07:21:36;3.90;;;1.80;;
65658;SDS011;60181;53.258;6.932;2023-04-15T07:25:40;3.90;;;1.80;;
65658;SDS011;60181;53.258;6.932;2023-04-15T07:29:44;5.10;;;2.00;;
65658;SDS011;60181;53.258;6.932;2023-04-15T07:33:48;5.10;;;2.00;;
65658;SDS011;60181;53.258;6.932;2023-04-15T07:37:52;3.70;;;1.90;;
65658;SDS011;60181;53.258;6.932;2023-04-15T07:41:56;3.70;;;1.90;;
65658;SDS011;60181;53.258;6.932;2023-04-15T07:46:00;3.70;;;1.90;;
65658;SDS011;60181;53.258;6.932;2023-04-15T07:50:04;6.00;;;1.90;;
65658;SDS011;60181;53.258;6.932;2023-04-15T07:54:08;6.00;;;1.90;;
65658;SDS011;60181;53.258;6.932;2023-04-15T07:58:12;4.90;;;1.80;;
65658;SDS011;60181;53.258;6.932;2023-04-15T08:02:16;4.90;;;1.80;;
65658;SDS011;60181;53.258;6.932;2023-04-15T08:06:20;4.90;;;1.80;;
65658;SDS011;60181;53.258;6.932;2023-04-15T08:10:24;5.00;;;1.90;;
65658;SDS011;60181;53.258;6.932;2023-04-15T08:14:28;5.00;;;1.90;;
65658;SDS011;60181;53.258;6.932;2023-04-15T08:18:32;2.40;;;1.50;;
65658;SDS011;60181;53.258;6.932;2023-04-15T08:22:36;2.40;;;1.50;;
65658;SDS011;60181;53.258;6.932;2023-04-15T08:26:40;2.40;;;1.50;;
65658;SDS011;60181;53.258;6.932;2023-04-15T08:30:44;3.00;;;1.60;;
65658;SDS011;60181;53.258;6.932;2023-04-15T08:34:48;3.00;;;1.60;;
65658;SDS011;60181;53.258;6.932;2023-04-15T08:38:52;5.70;;;1.60;;
65658;SDS011;60181;53.258;6.932;2023-04-15T08:42:56;5.70;;;1.60;;
65658;SDS011;60181;53.258;6.932;2023-04-15T08:47:00;5.70;;;1.60;;
65658;SDS011;60181;53.258;6.932;2023-04-15T08:51:04;3.60;;;1.60;;
65658;SDS011;60181;53.258;6.932;2023-04-15T08:55:08;3.60;;;1.60;;
65658;SDS011;60181;53.258;6.932;2023-04-15T08:59:12;1.80;;;1.40;;
65658;SDS011;60181;53.258;6.932;2023-04-15T09:03:16;1.80;;;1.40;;
65658;SDS011;60181;53.258;6.932;2023-04-15T09:07:20;5.50;;;1.70;;
65658;SDS011;60181;53.258;6.932;2023-04-15T09:11:24;5.50;;;1.70;;
65658;SDS011;60181;53.258;6.932;2023-04-15T09:15:28;5.50;;;1.70;;
65658;SDS011;60181;53.258;6.932;2023-04-15T09:19:32;3.00;;;1.50;;
65658;SDS011;60181;53.258;6.932;2023-04-15T09:23:36;3.00;;;1.50;;
65658;SDS011;60181;53.258;6.932;2023-04-15T09:27:47;2.40;;;1.40;;
65658;SDS011;60181;53.258;6.932;2023-04-15T09:31:44;2.40;;;1.40;;
65658;SDS011;60181;53.258;6.932;2023-04-15T09:36:03;2.40;;;1.40;;
65658;SDS011;60181;53.258;6.932;2023-04-15T09:39:52;4.20;;;1.50;;
65658;SDS011;60181;53.258;6.932;2023-04-15T09:43:56;4.20;;;1.50;;
65658;SDS011;60181;53.258;6.932;2023-04-15T09:52:04;3.30;;;1.50;;
65658;SDS011;60181;53.258;6.932;2023-04-15T09:56:08;3.30;;;1.50;;
65658;SDS011;60181;53.258;6.932;2023-04-15T10:00:12;2.60;;;1.50;;
65658;SDS011;60181;53.258;6.932;2023-04-15T10:04:16;2.60;;;1.50;;
65658;SDS011;60181;53.258;6.932;2023-04-15T10:08:21;5.60;;;1.60;;
65658;SDS011;60181;53.258;6.932;2023-04-15T10:12:24;5.60;;;1.60;;
65658;SDS011;60181;53.258;6.932;2023-04-15T10:16:28;5.60;;;1.60;;
65658;SDS011;60181;53.258;6.932;2023-04-15T10:20:32;2.60;;;1.40;;
65658;SDS011;60181;53.258;6.932;2023-04-15T10:24:36;2.60;;;1.40;;
65658;SDS011;60181;53.258;6.932;2023-04-15T10:28:40;3.10;;;1.50;;
65658;SDS011;60181;53.258;6.932;2023-04-15T10:32:44;3.10;;;1.50;;
65658;SDS011;60181;53.258;6.932;2023-04-15T10:36:48;3.10;;;1.50;;
65658;SDS011;60181;53.258;6.932;2023-04-15T10:40:52;3.60;;;1.40;;
65658;SDS011;60181;53.258;6.932;2023-04-15T10:44:55;3.60;;;1.40;;
65658;SDS011;60181;53.258;6.932;2023-04-15T10:48:59;2.30;;;1.20;;
65658;SDS011;60181;53.258;6.932;2023-04-15T10:53:04;2.30;;;1.20;;
65658;SDS011;60181;53.258;6.932;2023-04-15T10:57:08;2.30;;;1.40;;
65658;SDS011;60181;53.258;6.932;2023-04-15T11:01:11;2.30;;;1.40;;
65658;SDS011;60181;53.258;6.932;2023-04-15T11:05:16;2.30;;;1.40;;
65658;SDS011;60181;53.258;6.932;2023-04-15T11:09:31;4.00;;;1.30;;
65658;SDS011;60181;53.258;6.932;2023-04-15T11:13:24;4.00;;;1.30;;
65658;SDS011;60181;53.258;6.932;2023-04-15T11:17:27;2.70;;;1.30;;
65658;SDS011;60181;53.258;6.932;2023-04-15T11:21:31;2.70;;;1.30;;
65658;SDS011;60181;53.258;6.932;2023-04-15T11:25:36;2.70;;;1.30;;
65658;SDS011;60181;53.258;6.932;2023-04-15T11:29:39;2.30;;;1.30;;
65658;SDS011;60181;53.258;6.932;2023-04-15T11:33:52;2.30;;;1.30;;
65658;SDS011;60181;53.258;6.932;2023-04-15T11:37:48;3.50;;;1.30;;
65658;SDS011;60181;53.258;6.932;2023-04-15T11:41:51;3.50;;;1.30;;
65658;SDS011;60181;53.258;6.932;2023-04-15T11:45:59;3.50;;;1.30;;
65658;SDS011;60181;53.258;6.932;2023-04-15T11:50:15;23.90;;;2.00;;
65658;SDS011;60181;53.258;6.932;2023-04-15T11:54:03;23.90;;;2.00;;
65658;SDS011;60181;53.258;6.932;2023-04-15T11:58:14;3.90;;;1.40;;
65658;SDS011;60181;53.258;6.932;2023-04-15T12:02:12;3.90;;;1.40;;
65658;SDS011;60181;53.258;6.932;2023-04-15T12:06:22;3.90;;;1.40;;
65658;SDS011;60181;53.258;6.932;2023-04-15T12:10:19;3.10;;;1.20;;
65658;SDS011;60181;53.258;6.932;2023-04-15T12:14:24;3.10;;;1.20;;
65658;SDS011;60181;53.258;6.932;2023-04-15T12:18:27;3.70;;;1.20;;
65658;SDS011;60181;53.258;6.932;2023-04-15T12:22:31;3.70;;;1.20;;
65658;SDS011;60181;53.258;6.932;2023-04-15T12:26:48;3.70;;;1.20;;
65658;SDS011;60181;53.258;6.932;2023-04-15T12:30:49;3.00;;;1.30;;
65658;SDS011;60181;53.258;6.932;2023-04-15T12:34:47;3.00;;;1.30;;
65658;SDS011;60181;53.258;6.932;2023-04-15T12:38:47;3.20;;;1.20;;
65658;SDS011;60181;53.258;6.932;2023-04-15T12:42:51;3.20;;;1.20;;
65658;SDS011;60181;53.258;6.932;2023-04-15T12:46:55;3.20;;;1.20;;
65658;SDS011;60181;53.258;6.932;2023-04-15T12:50:59;2.50;;;1.10;;
65658;SDS011;60181;53.258;6.932;2023-04-15T12:55:04;2.50;;;1.10;;
65658;SDS011;60181;53.258;6.932;2023-04-15T12:59:07;3.50;;;1.10;;
65658;SDS011;60181;53.258;6.932;2023-04-15T13:03:11;3.50;;;1.10;;
65658;SDS011;60181;53.258;6.932;2023-04-15T13:07:15;3.00;;;1.10;;
65658;SDS011;60181;53.258;6.932;2023-04-15T13:11:20;3.00;;;1.10;;
65658;SDS011;60181;53.258;6.932;2023-04-15T13:15:23;3.00;;;1.10;;
65658;SDS011;60181;53.258;6.932;2023-04-15T13:19:27;3.10;;;1.10;;
65658;SDS011;60181;53.258;6.932;2023-04-15T13:23:32;3.10;;;1.10;;
65658;SDS011;60181;53.258;6.932;2023-04-15T13:27:35;1.80;;;1.00;;
65658;SDS011;60181;53.258;6.932;2023-04-15T13:31:39;1.80;;;1.00;;
65658;SDS011;60181;53.258;6.932;2023-04-15T13:35:43;1.80;;;1.00;;
65658;SDS011;60181;53.258;6.932;2023-04-15T13:39:47;1.80;;;1.00;;
65658;SDS011;60181;53.258;6.932;2023-04-15T13:43:51;1.80;;;1.00;;
65658;SDS011;60181;53.258;6.932;2023-04-15T13:47:55;2.00;;;0.90;;
65658;SDS011;60181;53.258;6.932;2023-04-15T13:51:59;2.00;;;0.90;;
65658;SDS011;60181;53.258;6.932;2023-04-15T13:56:04;2.00;;;0.90;;
65658;SDS011;60181;53.258;6.932;2023-04-15T14:00:08;2.30;;;1.00;;
65658;SDS011;60181;53.258;6.932;2023-04-15T14:04:12;2.30;;;1.00;;
65658;SDS011;60181;53.258;6.932;2023-04-15T14:08:15;2.50;;;1.00;;
65658;SDS011;60181;53.258;6.932;2023-04-15T14:12:19;2.50;;;1.00;;
65658;SDS011;60181;53.258;6.932;2023-04-15T14:16:23;2.50;;;1.00;;
65658;SDS011;60181;53.258;6.932;2023-04-15T14:20:27;1.90;;;1.00;;
65658;SDS011;60181;53.258;6.932;2023-04-15T14:24:31;1.90;;;1.00;;
65658;SDS011;60181;53.258;6.932;2023-04-15T14:28:35;2.70;;;1.00;;
65658;SDS011;60181;53.258;6.932;2023-04-15T14:32:39;2.70;;;1.00;;
65658;SDS011;60181;53.258;6.932;2023-04-15T14:36:43;2.70;;;1.00;;
65658;SDS011;60181;53.258;6.932;2023-04-15T14:40:47;2.00;;;1.00;;
65658;SDS011;60181;53.258;6.932;2023-04-15T14:44:51;2.00;;;1.00;;
65658;SDS011;60181;53.258;6.932;2023-04-15T14:48:55;2.90;;;1.10;;
65658;SDS011;60181;53.258;6.932;2023-04-15T14:52:59;2.90;;;1.10;;
65658;SDS011;60181;53.258;6.932;2023-04-15T14:57:03;2.90;;;1.00;;
65658;SDS011;60181;53.258;6.932;2023-04-15T15:01:08;2.90;;;1.00;;
65658;SDS011;60181;53.258;6.932;2023-04-15T15:05:11;2.90;;;1.00;;
65658;SDS011;60181;53.258;6.932;2023-04-15T15:09:15;3.00;;;1.10;;
65658;SDS011;60181;53.258;6.932;2023-04-15T15:13:19;3.00;;;1.10;;
65658;SDS011;60181;53.258;6.932;2023-04-15T15:17:23;4.00;;;1.00;;
65658;SDS011;60181;53.258;6.932;2023-04-15T15:21:27;4.00;;;1.00;;
65658;SDS011;60181;53.258;6.932;2023-04-15T15:25:31;4.00;;;1.00;;
65658;SDS011;60181;53.258;6.932;2023-04-15T15:29:36;5.30;;;1.20;;
65658;SDS011;60181;53.258;6.932;2023-04-15T15:33:39;5.30;;;1.20;;
65658;SDS011;60181;53.258;6.932;2023-04-15T15:37:44;3.10;;;1.10;;
65658;SDS011;60181;53.258;6.932;2023-04-15T15:41:47;3.10;;;1.10;;
65658;SDS011;60181;53.258;6.932;2023-04-15T15:45:51;3.10;;;1.10;;
65658;SDS011;60181;53.258;6.932;2023-04-15T15:49:55;3.90;;;1.10;;
65658;SDS011;60181;53.258;6.932;2023-04-15T15:53:59;3.90;;;1.10;;
65658;SDS011;60181;53.258;6.932;2023-04-15T15:58:03;4.00;;;1.30;;
65658;SDS011;60181;53.258;6.932;2023-04-15T16:02:08;4.00;;;1.30;;
65658;SDS011;60181;53.258;6.932;2023-04-15T16:06:11;4.00;;;1.30;;
65658;SDS011;60181;53.258;6.932;2023-04-15T16:10:15;5.70;;;1.40;;
65658;SDS011;60181;53.258;6.932;2023-04-15T16:14:19;5.70;;;1.40;;
65658;SDS011;60181;53.258;6.932;2023-04-15T16:18:23;6.10;;;1.40;;
65658;SDS011;60181;53.258;6.932;2023-04-15T16:22:27;6.10;;;1.40;;
65658;SDS011;60181;53.258;6.932;2023-04-15T16:26:31;6.10;;;1.40;;
65658;SDS011;60181;53.258;6.932;2023-04-15T16:30:38;6.00;;;1.50;;
65658;SDS011;60181;53.258;6.932;2023-04-15T16:34:39;6.00;;;1.50;;
65658;SDS011;60181;53.258;6.932;2023-04-15T16:38:43;4.20;;;1.30;;
65658;SDS011;60181;53.258;6.932;2023-04-15T16:42:48;4.20;;;1.30;;
65658;SDS011;60181;53.258;6.932;2023-04-15T16:46:51;4.20;;;1.30;;
65658;SDS011;60181;53.258;6.932;2023-04-15T16:50:55;4.90;;;1.50;;
65658;SDS011;60181;53.258;6.932;2023-04-15T16:54:59;4.90;;;1.50;;
65658;SDS011;60181;53.258;6.932;2023-04-15T16:59:03;7.90;;;1.40;;
65658;SDS011;60181;53.258;6.932;2023-04-15T17:03:07;7.90;;;1.40;;
65658;SDS011;60181;53.258;6.932;2023-04-15T17:07:11;4.60;;;1.50;;
65658;SDS011;60181;53.258;6.932;2023-04-15T17:11:15;4.60;;;1.50;;
65658;SDS011;60181;53.258;6.932;2023-04-15T17:15:19;4.60;;;1.50;;
65658;SDS011;60181;53.258;6.932;2023-04-15T17:19:23;4.60;;;1.50;;
65658;SDS011;60181;53.258;6.932;2023-04-15T17:23:27;4.60;;;1.50;;
65658;SDS011;60181;53.258;6.932;2023-04-15T17:27:31;6.40;;;1.80;;
65658;SDS011;60181;53.258;6.932;2023-04-15T17:31:35;6.40;;;1.80;;
65658;SDS011;60181;53.258;6.932;2023-04-15T17:35:39;6.40;;;1.80;;
65658;SDS011;60181;53.258;6.932;2023-04-15T17:39:43;6.10;;;1.60;;
65658;SDS011;60181;53.258;6.932;2023-04-15T17:43:47;6.10;;;1.60;;
65658;SDS011;60181;53.258;6.932;2023-04-15T17:47:51;4.50;;;1.40;;
65658;SDS011;60181;53.258;6.932;2023-04-15T17:51:55;4.50;;;1.40;;
65658;SDS011;60181;53.258;6.932;2023-04-15T17:55:59;4.50;;;1.40;;
65658;SDS011;60181;53.258;6.932;2023-04-15T18:00:04;5.20;;;1.60;;
65658;SDS011;60181;53.258;6.932;2023-04-15T18:04:07;5.20;;;1.60;;
65658;SDS011;60181;53.258;6.932;2023-04-15T18:08:11;6.80;;;1.70;;
65658;SDS011;60181;53.258;6.932;2023-04-15T18:12:15;6.80;;;1.70;;
65658;SDS011;60181;53.258;6.932;2023-04-15T18:16:19;6.80;;;1.70;;
65658;SDS011;60181;53.258;6.932;2023-04-15T18:20:23;4.80;;;1.50;;
65658;SDS011;60181;53.258;6.932;2023-04-15T18:24:27;4.80;;;1.50;;
65658;SDS011;60181;53.258;6.932;2023-04-15T18:28:31;4.00;;;1.50;;
65658;SDS011;60181;53.258;6.932;2023-04-15T18:32:35;4.00;;;1.50;;
65658;SDS011;60181;53.258;6.932;2023-04-15T18:36:39;4.00;;;1.50;;
65658;SDS011;60181;53.258;6.932;2023-04-15T18:40:43;6.30;;;1.70;;
65658;SDS011;60181;53.258;6.932;2023-04-15T18:44:47;6.30;;;1.70;;
65658;SDS011;60181;53.258;6.932;2023-04-15T18:48:51;5.50;;;1.70;;
65658;SDS011;60181;53.258;6.932;2023-04-15T18:52:55;5.50;;;1.70;;
65658;SDS011;60181;53.258;6.932;2023-04-15T18:56:59;5.50;;;1.70;;
65658;SDS011;60181;53.258;6.932;2023-04-15T19:01:03;6.50;;;1.70;;
65658;SDS011;60181;53.258;6.932;2023-04-15T19:05:07;6.50;;;1.70;;
65658;SDS011;60181;53.258;6.932;2023-04-15T19:09:11;5.60;;;1.80;;
65658;SDS011;60181;53.258;6.932;2023-04-15T19:13:15;5.60;;;1.80;;
65658;SDS011;60181;53.258;6.932;2023-04-15T19:17:19;4.40;;;1.50;;
65658;SDS011;60181;53.258;6.932;2023-04-15T19:21:23;4.40;;;1.50;;
65658;SDS011;60181;53.258;6.932;2023-04-15T19:25:27;4.40;;;1.50;;
65658;SDS011;60181;53.258;6.932;2023-04-15T19:29:31;6.60;;;2.00;;
65658;SDS011;60181;53.258;6.932;2023-04-15T19:33:35;6.60;;;2.00;;
65658;SDS011;60181;53.258;6.932;2023-04-15T19:37:39;5.70;;;1.90;;
65658;SDS011;60181;53.258;6.932;2023-04-15T19:41:43;5.70;;;1.90;;
65658;SDS011;60181;53.258;6.932;2023-04-15T19:45:47;5.70;;;1.90;;
65658;SDS011;60181;53.258;6.932;2023-04-15T19:49:51;4.20;;;1.80;;
65658;SDS011;60181;53.258;6.932;2023-04-15T19:53:55;4.20;;;1.80;;
65658;SDS011;60181;53.258;6.932;2023-04-15T19:57:59;5.60;;;2.10;;
65658;SDS011;60181;53.258;6.932;2023-04-15T20:02:03;5.60;;;2.10;;
65658;SDS011;60181;53.258;6.932;2023-04-15T20:06:07;5.60;;;2.10;;
65658;SDS011;60181;53.258;6.932;2023-04-15T20:10:11;26.00;;;7.40;;
65658;SDS011;60181;53.258;6.932;2023-04-15T20:14:15;26.00;;;7.40;;
65658;SDS011;60181;53.258;6.932;2023-04-15T20:18:19;31.60;;;9.30;;
65658;SDS011;60181;53.258;6.932;2023-04-15T20:22:23;31.60;;;9.30;;
65658;SDS011;60181;53.258;6.932;2023-04-15T20:26:27;31.60;;;9.30;;
65658;SDS011;60181;53.258;6.932;2023-04-15T20:30:31;37.90;;;11.40;;
65658;SDS011;60181;53.258;6.932;2023-04-15T20:34:35;37.90;;;11.40;;
65658;SDS011;60181;53.258;6.932;2023-04-15T20:38:39;42.00;;;13.20;;
65658;SDS011;60181;53.258;6.932;2023-04-15T20:42:43;42.00;;;13.20;;
65658;SDS011;60181;53.258;6.932;2023-04-15T20:46:47;42.00;;;13.20;;
65658;SDS011;60181;53.258;6.932;2023-04-15T20:50:51;45.90;;;14.70;;
65658;SDS011;60181;53.258;6.932;2023-04-15T20:54:55;45.90;;;14.70;;
65658;SDS011;60181;53.258;6.932;2023-04-15T20:58:59;52.90;;;14.20;;
65658;SDS011;60181;53.258;6.932;2023-04-15T21:03:03;52.90;;;14.20;;
65658;SDS011;60181;53.258;6.932;2023-04-15T21:07:07;49.40;;;15.60;;
65658;SDS011;60181;53.258;6.932;2023-04-15T21:11:11;49.40;;;15.60;;
65658;SDS011;60181;53.258;6.932;2023-04-15T21:15:15;49.40;;;15.60;;
65658;SDS011;60181;53.258;6.932;2023-04-15T21:19:19;53.10;;;15.10;;
65658;SDS011;60181;53.258;6.932;2023-04-15T21:23:23;53.10;;;15.10;;
65658;SDS011;60181;53.258;6.932;2023-04-15T21:27:27;58.90;;;16.90;;
65658;SDS011;60181;53.258;6.932;2023-04-15T21:31:31;58.90;;;16.90;;
65658;SDS011;60181;53.258;6.932;2023-04-15T21:35:35;58.90;;;16.90;;
65658;SDS011;60181;53.258;6.932;2023-04-15T21:39:39;54.80;;;15.40;;
65658;SDS011;60181;53.258;6.932;2023-04-15T21:43:43;54.80;;;15.40;;
65658;SDS011;60181;53.258;6.932;2023-04-15T21:47:47;54.20;;;16.10;;
65658;SDS011;60181;53.258;6.932;2023-04-15T21:51:51;54.20;;;16.10;;
65658;SDS011;60181;53.258;6.932;2023-04-15T21:55:55;54.20;;;16.10;;
65658;SDS011;60181;53.258;6.932;2023-04-15T21:59:59;52.80;;;15.60;;
65658;SDS011;60181;53.258;6.932;2023-04-15T22:04:03;52.80;;;15.60;;
65658;SDS011;60181;53.258;6.932;2023-04-15T22:08:07;44.10;;;14.50;;
65658;SDS011;60181;53.258;6.932;2023-04-15T22:12:11;44.10;;;14.50;;
65658;SDS011;60181;53.258;6.932;2023-04-15T22:16:15;44.10;;;14.50;;
65658;SDS011;60181;53.258;6.932;2023-04-15T22:20:19;51.60;;;15.00;;
65658;SDS011;60181;53.258;6.932;2023-04-15T22:24:23;51.60;;;15.00;;
65658;SDS011;60181;53.258;6.932;2023-04-15T22:28:27;53.20;;;14.90;;
65658;SDS011;60181;53.258;6.932;2023-04-15T22:32:31;53.20;;;14.90;;
65658;SDS011;60181;53.258;6.932;2023-04-15T22:36:35;53.20;;;14.90;;
65658;SDS011;60181;53.258;6.932;2023-04-15T22:40:39;49.00;;;15.20;;
65658;SDS011;60181;53.258;6.932;2023-04-15T22:44:42;49.00;;;15.20;;
65658;SDS011;60181;53.258;6.932;2023-04-15T22:48:46;46.60;;;14.40;;
65658;SDS011;60181;53.258;6.932;2023-04-15T22:52:50;46.60;;;14.40;;
65658;SDS011;60181;53.258;6.932;2023-04-15T22:56:54;46.60;;;14.40;;
65658;SDS011;60181;53.258;6.932;2023-04-15T23:00:58;36.50;;;13.70;;
65658;SDS011;60181;53.258;6.932;2023-04-15T23:05:03;36.50;;;13.70;;
65658;SDS011;60181;53.258;6.932;2023-04-15T23:09:06;43.20;;;14.30;;
65658;SDS011;60181;53.258;6.932;2023-04-15T23:13:10;43.20;;;14.30;;
65658;SDS011;60181;53.258;6.932;2023-04-15T23:17:14;42.40;;;14.60;;
65658;SDS011;60181;53.258;6.932;2023-04-15T23:21:18;42.40;;;14.60;;
65658;SDS011;60181;53.258;6.932;2023-04-15T23:25:22;42.40;;;14.60;;
65658;SDS011;60181;53.258;6.932;2023-04-15T23:29:26;40.40;;;14.50;;
65658;SDS011;60181;53.258;6.932;2023-04-15T23:33:30;40.40;;;14.50;;
65658;SDS011;60181;53.258;6.932;2023-04-15T23:37:34;43.80;;;14.50;;
65658;SDS011;60181;53.258;6.932;2023-04-15T23:41:38;43.80;;;14.50;;
65658;SDS011;60181;53.258;6.932;2023-04-15T23:45:42;43.80;;;14.50;;
65658;SDS011;60181;53.258;6.932;2023-04-15T23:49:46;38.70;;;13.80;;
65658;SDS011;60181;53.258;6.932;2023-04-15T23:53:50;38.70;;;13.80;;
65658;SDS011;60181;53.258;6.932;2023-04-15T23:57:54;36.20;;;13.80;;
